sensor_id;sensor_type;location;lat;lon;timestamp;pressure;altitude;pressure_sealevel;temperature;humidity
26531;BME280;14201;43.188;24.160;2023-04-19T00:01:56;99370.75;;;11.91;100.00
26531;BME280;14201;43.188;24.160;2023-04-19T00:04:22;99374.59;;;11.76;100.00
26531;BME280;14201;43.188;24.160;2023-04-19T00:06:47;99375.31;;;11.72;100.00
26531;BME280;14201;43.188;24.160;2023-04-19T00:09:12;99371.97;;;11.76;100.00
26531;BME280;14201;43.188;24.160;2023-04-19T00:11:38;99373.44;;;11.68;100.00
26531;BME280;14201;43.188;24.160;2023-04-19T00:14:03;99362.03;;;11.65;100.00
26531;BME280;14201;43.188;24.160;2023-04-19T00:16:29;99366.38;;;11.64;100.00
26531;BME280;14201;43.188;24.160;2023-04-19T00:18:54;99363.88;;;11.67;100.00
26531;BME280;14201;43.188;24.160;2023-04-19T00:21:20;99362.44;;;11.77;100.00
26531;BME280;14201;43.188;24.160;2023-04-19T00:23:45;99357.19;;;11.75;100.00
26531;BME280;14201;43.188;24.160;2023-04-19T00:26:11;99355.34;;;11.73;100.00
26531;BME280;14201;43.188;24.160;2023-04-19T00:28:39;99356.31;;;11.76;100.00
26531;BME280;14201;43.188;24.160;2023-04-19T00:31:04;99351.03;;;11.73;100.00
26531;BME280;14201;43.188;24.160;2023-04-19T00:33:31;99353.56;;;11.72;100.00
26531;BME280;14201;43.188;24.160;2023-04-19T00:35:56;99347.47;;;11.71;100.00
26531;BME280;14201;43.188;24.160;2023-04-19T00:38:22;99347.22;;;11.89;100.00
26531;BME280;14201;43.188;24.160;2023-04-19T00:40:47;99356.69;;;11.87;100.00
26531;BME280;14201;43.188;24.160;2023-04-19T00:43:19;99350.81;;;11.93;100.00
26531;BME280;14201;43.188;24.160;2023-04-19T00:45:44;99346.41;;;11.92;100.00
26531;BME280;14201;43.188;24.160;2023-04-19T00:48:11;99350.75;;;11.91;100.00
26531;BME280;14201;43.188;24.160;2023-04-19T00:50:36;99352.44;;;11.89;100.00
26531;BME280;14201;43.188;24.160;2023-04-19T00:53:02;99352.56;;;11.94;100.00
26531;BME280;14201;43.188;24.160;2023-04-19T00:55:27;99348.75;;;11.84;100.00
26531;BME280;14201;43.188;24.160;2023-04-19T00:57:53;99351.22;;;11.79;100.00
26531;BME280;14201;43.188;24.160;2023-04-19T01:00:19;99355.63;;;11.82;100.00
26531;BME280;14201;43.188;24.160;2023-04-19T01:02:44;99354.75;;;11.81;100.00
26531;BME280;14201;43.188;24.160;2023-04-19T01:05:10;99353.31;;;11.90;100.00
26531;BME280;14201;43.188;24.160;2023-04-19T01:07:36;99349.03;;;11.92;99.74
26531;BME280;14201;43.188;24.160;2023-04-19T01:10:01;99349.97;;;11.94;99.59
26531;BME280;14201;43.188;24.160;2023-04-19T01:12:27;99343.13;;;11.97;99.08
26531;BME280;14201;43.188;24.160;2023-04-19T01:14:52;99344.78;;;11.95;99.21
26531;BME280;14201;43.188;24.160;2023-04-19T01:17:18;99344.78;;;11.95;98.50
26531;BME280;14201;43.188;24.160;2023-04-19T01:19:44;99342.97;;;11.93;98.60
26531;BME280;14201;43.188;24.160;2023-04-19T01:22:13;99337.75;;;11.93;97.87
26531;BME280;14201;43.188;24.160;2023-04-19T01:24:39;99335.75;;;11.86;98.38
26531;BME280;14201;43.188;24.160;2023-04-19T01:27:04;99329.81;;;11.90;98.20
26531;BME280;14201;43.188;24.160;2023-04-19T01:29:30;99323.44;;;11.81;97.65
26531;BME280;14201;43.188;24.160;2023-04-19T01:31:55;99326.88;;;11.80;97.72
26531;BME280;14201;43.188;24.160;2023-04-19T01:34:20;99326.81;;;11.77;97.58
26531;BME280;14201;43.188;24.160;2023-04-19T01:36:48;99320.34;;;11.66;98.79
26531;BME280;14201;43.188;24.160;2023-04-19T01:39:14;99316.50;;;11.55;98.96
26531;BME280;14201;43.188;24.160;2023-04-19T01:41:40;99324.50;;;11.61;98.52
26531;BME280;14201;43.188;24.160;2023-04-19T01:44:05;99317.84;;;11.69;97.94
26531;BME280;14201;43.188;24.160;2023-04-19T01:46:30;99316.81;;;11.64;98.62
26531;BME280;14201;43.188;24.160;2023-04-19T01:48:56;99315.19;;;11.68;98.42
26531;BME280;14201;43.188;24.160;2023-04-19T01:51:21;99312.72;;;11.72;98.69
26531;BME280;14201;43.188;24.160;2023-04-19T01:53:47;99312.81;;;11.75;98.21
26531;BME280;14201;43.188;24.160;2023-04-19T01:56:17;99304.81;;;11.71;98.39
26531;BME280;14201;43.188;24.160;2023-04-19T01:58:43;99303.94;;;11.70;98.72
26531;BME280;14201;43.188;24.160;2023-04-19T02:01:08;99303.06;;;11.70;99.26
26531;BME280;14201;43.188;24.160;2023-04-19T02:03:36;99307.59;;;11.75;98.75
26531;BME280;14201;43.188;24.160;2023-04-19T02:06:02;99304.19;;;11.78;98.26
26531;BME280;14201;43.188;24.160;2023-04-19T02:08:27;99302.38;;;11.75;98.91
26531;BME280;14201;43.188;24.160;2023-04-19T02:10:53;99300.84;;;11.82;98.78
26531;BME280;14201;43.188;24.160;2023-04-19T02:13:18;99300.91;;;11.83;98.43
26531;BME280;14201;43.188;24.160;2023-04-19T02:15:44;99300.91;;;11.83;98.38
26531;BME280;14201;43.188;24.160;2023-04-19T02:18:09;99294.13;;;11.89;97.40
26531;BME280;14201;43.188;24.160;2023-04-19T02:20:35;99299.91;;;11.80;97.83
26531;BME280;14201;43.188;24.160;2023-04-19T02:23:01;99296.06;;;11.69;99.06
26531;BME280;14201;43.188;24.160;2023-04-19T02:25:26;99297.13;;;11.74;98.29
26531;BME280;14201;43.188;24.160;2023-04-19T02:27:52;99295.31;;;11.73;98.83
26531;BME280;14201;43.188;24.160;2023-04-19T02:30:17;99298.72;;;11.70;98.91
26531;BME280;14201;43.188;24.160;2023-04-19T02:32:43;99288.28;;;11.70;99.11
26531;BME280;14201;43.188;24.160;2023-04-19T02:35:08;99295.13;;;11.65;99.17
26531;BME280;14201;43.188;24.160;2023-04-19T02:37:34;99293.44;;;11.67;99.43
26531;BME280;14201;43.188;24.160;2023-04-19T02:39:59;99291.53;;;11.63;99.46
26531;BME280;14201;43.188;24.160;2023-04-19T02:42:25;99284.56;;;11.62;99.60
26531;BME280;14201;43.188;24.160;2023-04-19T02:44:50;99290.97;;;11.72;99.25
26531;BME280;14201;43.188;24.160;2023-04-19T02:47:15;99290.09;;;11.73;99.42
26531;BME280;14201;43.188;24.160;2023-04-19T02:49:41;99284.75;;;11.68;99.51
26531;BME280;14201;43.188;24.160;2023-04-19T02:52:07;99285.00;;;11.76;98.58
26531;BME280;14201;43.188;24.160;2023-04-19T02:54:32;99296.28;;;11.75;98.70
26531;BME280;14201;43.188;24.160;2023-04-19T02:56:58;99286.44;;;11.66;98.83
26531;BME280;14201;43.188;24.160;2023-04-19T02:59:23;99285.81;;;11.73;99.17
26531;BME280;14201;43.188;24.160;2023-04-19T03:01:49;99280.47;;;11.70;98.91
26531;BME280;14201;43.188;24.160;2023-04-19T03:04:14;99292.69;;;11.71;98.81
26531;BME280;14201;43.188;24.160;2023-04-19T03:06:41;99282.88;;;11.64;99.60
26531;BME280;14201;43.188;24.160;2023-04-19T03:09:08;99283.75;;;11.65;99.52
26531;BME280;14201;43.188;24.160;2023-04-19T03:11:33;99288.22;;;11.67;99.30
26531;BME280;14201;43.188;24.160;2023-04-19T03:13:59;99288.94;;;11.63;99.45
26531;BME280;14201;43.188;24.160;2023-04-19T03:16:25;99289.78;;;11.62;99.44
26531;BME280;14201;43.188;24.160;2023-04-19T03:18:51;99284.50;;;11.60;99.74
26531;BME280;14201;43.188;24.160;2023-04-19T03:21:16;99286.28;;;11.61;99.68
26531;BME280;14201;43.188;24.160;2023-04-19T03:23:41;99283.50;;;11.57;100.00
26531;BME280;14201;43.188;24.160;2023-04-19T03:26:07;99288.78;;;11.58;100.00
26531;BME280;14201;43.188;24.160;2023-04-19T03:28:33;99288.28;;;11.70;99.75
26531;BME280;14201;43.188;24.160;2023-04-19T03:30:58;99287.47;;;11.71;99.82
26531;BME280;14201;43.188;24.160;2023-04-19T03:33:25;99291.53;;;11.63;100.00
26531;BME280;14201;43.188;24.160;2023-04-19T03:35:50;99294.13;;;11.61;100.00
26531;BME280;14201;43.188;24.160;2023-04-19T03:38:15;99295.81;;;11.61;100.00
26531;BME280;14201;43.188;24.160;2023-04-19T03:40:41;99298.53;;;11.64;100.00
26531;BME280;14201;43.188;24.160;2023-04-19T03:43:06;99292.53;;;11.67;100.00
26531;BME280;14201;43.188;24.160;2023-04-19T03:45:31;99290.84;;;11.69;99.81
26531;BME280;14201;43.188;24.160;2023-04-19T03:47:57;99293.50;;;11.70;99.41
26531;BME280;14201;43.188;24.160;2023-04-19T03:50:22;99290.84;;;11.69;99.55
26531;BME280;14201;43.188;24.160;2023-04-19T03:52:48;99292.69;;;11.71;99.00
26531;BME280;14201;43.188;24.160;2023-04-19T03:55:13;99300.53;;;11.71;99.18
26531;BME280;14201;43.188;24.160;2023-04-19T03:57:38;99291.16;;;11.78;98.85
26531;BME280;14201;43.188;24.160;2023-04-19T04:00:04;99298.16;;;11.79;98.22
26531;BME280;14201;43.188;24.160;2023-04-19T04:02:33;99296.31;;;11.76;98.13
26531;BME280;14201;43.188;24.160;2023-04-19T04:05:00;99297.72;;;11.65;98.64
26531;BME280;14201;43.188;24.160;2023-04-19T04:07:26;99293.44;;;11.67;98.81
26531;BME280;14201;43.188;24.160;2023-04-19T04:09:51;99298.53;;;11.64;98.91
26531;BME280;14201;43.188;24.160;2023-04-19T04:12:16;99300.22;;;11.62;99.33
26531;BME280;14201;43.188;24.160;2023-04-19T04:14:42;99294.06;;;11.60;100.00
26531;BME280;14201;43.188;24.160;2023-04-19T04:17:07;99296.66;;;11.60;100.00
26531;BME280;14201;43.188;24.160;2023-04-19T04:19:33;99294.13;;;11.61;100.00
26531;BME280;14201;43.188;24.160;2023-04-19T04:21:58;99292.44;;;11.63;99.61
26531;BME280;14201;43.188;24.160;2023-04-19T04:24:23;99295.06;;;11.63;99.47
26531;BME280;14201;43.188;24.160;2023-04-19T04:26:50;99298.53;;;11.64;100.00
26531;BME280;14201;43.188;24.160;2023-04-19T04:29:16;99295.94;;;11.64;100.00
26531;BME280;14201;43.188;24.160;2023-04-19T04:31:41;99291.47;;;11.60;100.00
26531;BME280;14201;43.188;24.160;2023-04-19T04:34:07;99296.00;;;11.66;99.62
26531;BME280;14201;43.188;24.160;2023-04-19T04:36:34;99295.78;;;11.59;100.00
26531;BME280;14201;43.188;24.160;2023-04-19T04:39:04;99292.19;;;11.56;100.00
26531;BME280;14201;43.188;24.160;2023-04-19T04:41:30;99296.47;;;11.54;100.00
26531;BME280;14201;43.188;24.160;2023-04-19T04:43:59;99302.50;;;11.53;100.00
26531;BME280;14201;43.188;24.160;2023-04-19T04:46:25;99300.94;;;11.58;100.00
26531;BME280;14201;43.188;24.160;2023-04-19T04:48:51;99304.44;;;11.58;100.00
26531;BME280;14201;43.188;24.160;2023-04-19T04:51:16;99300.09;;;11.59;100.00
26531;BME280;14201;43.188;24.160;2023-04-19T04:53:42;99307.97;;;11.60;100.00
26531;BME280;14201;43.188;24.160;2023-04-19T04:56:07;99309.53;;;11.55;100.00
26531;BME280;14201;43.188;24.160;2023-04-19T04:58:33;99307.00;;;11.57;100.00
26531;BME280;14201;43.188;24.160;2023-04-19T05:00:58;99308.84;;;11.59;100.00
26531;BME280;14201;43.188;24.160;2023-04-19T05:03:24;99303.66;;;11.61;100.00
26531;BME280;14201;43.188;24.160;2023-04-19T05:05:50;99309.78;;;11.61;100.00
26531;BME280;14201;43.188;24.160;2023-04-19T05:08:16;99306.41;;;11.66;100.00
26531;BME280;14201;43.188;24.160;2023-04-19T05:10:41;99304.63;;;11.65;100.00
26531;BME280;14201;43.188;24.160;2023-04-19T05:13:07;99303.88;;;11.67;100.00
26531;BME280;14201;43.188;24.160;2023-04-19T05:15:32;99311.69;;;11.67;100.00
26531;BME280;14201;43.188;24.160;2023-04-19T05:17:58;99310.97;;;11.71;100.00
26531;BME280;14201;43.188;24.160;2023-04-19T05:20:23;99311.88;;;11.73;100.00
26531;BME280;14201;43.188;24.160;2023-04-19T05:22:48;99313.75;;;11.77;99.92
26531;BME280;14201;43.188;24.160;2023-04-19T05:25:14;99307.75;;;11.80;99.29
26531;BME280;14201;43.188;24.160;2023-04-19T05:27:39;99308.47;;;11.76;99.09
26531;BME280;14201;43.188;24.160;2023-04-19T05:30:05;99308.53;;;11.77;99.63
26531;BME280;14201;43.188;24.160;2023-04-19T05:32:30;99314.75;;;11.81;99.41
26531;BME280;14201;43.188;24.160;2023-04-19T05:34:56;99312.13;;;11.81;99.85
26531;BME280;14201;43.188;24.160;2023-04-19T05:37:21;99308.78;;;11.85;100.00
26531;BME280;14201;43.188;24.160;2023-04-19T05:39:48;99314.06;;;11.87;100.00
26531;BME280;14201;43.188;24.160;2023-04-19T05:42:13;99312.25;;;11.86;100.00
26531;BME280;14201;43.188;24.160;2023-04-19T05:44:39;99311.44;;;11.87;100.00
26531;BME280;14201;43.188;24.160;2023-04-19T05:47:04;99310.78;;;11.92;100.00
26531;BME280;14201;43.188;24.160;2023-04-19T05:49:30;99311.66;;;11.93;100.00
26531;BME280;14201;43.188;24.160;2023-04-19T05:51:58;99311.22;;;12.08;100.00
26531;BME280;14201;43.188;24.160;2023-04-19T05:54:24;99315.69;;;12.10;100.00
26531;BME280;14201;43.188;24.160;2023-04-19T05:56:49;99311.22;;;12.06;99.44
26531;BME280;14201;43.188;24.160;2023-04-19T05:59:14;99312.44;;;12.17;98.50
26531;BME280;14201;43.188;24.160;2023-04-19T06:01:40;99308.91;;;12.17;97.63
26531;BME280;14201;43.188;24.160;2023-04-19T06:04:05;99310.53;;;12.13;97.85
26531;BME280;14201;43.188;24.160;2023-04-19T06:06:31;99306.00;;;12.06;97.27
26531;BME280;14201;43.188;24.160;2023-04-19T06:08:56;99312.16;;;12.08;97.68
26531;BME280;14201;43.188;24.160;2023-04-19T06:11:22;99313.38;;;12.21;96.47
26531;BME280;14201;43.188;24.160;2023-04-19T06:13:47;99312.22;;;12.11;97.10
26531;BME280;14201;43.188;24.160;2023-04-19T06:16:14;99321.69;;;12.08;97.48
26531;BME280;14201;43.188;24.160;2023-04-19T06:18:40;99323.56;;;12.12;96.04
26531;BME280;14201;43.188;24.160;2023-04-19T06:21:07;99312.84;;;12.02;96.80
26531;BME280;14201;43.188;24.160;2023-04-19T06:23:32;99317.06;;;11.99;97.47
26531;BME280;14201;43.188;24.160;2023-04-19T06:25:58;99323.09;;;11.96;98.46
26531;BME280;14201;43.188;24.160;2023-04-19T06:28:23;99323.28;;;12.02;97.63
26531;BME280;14201;43.188;24.160;2023-04-19T06:30:49;99325.84;;;12.01;97.23
26531;BME280;14201;43.188;24.160;2023-04-19T06:33:14;99328.44;;;12.01;98.09
26531;BME280;14201;43.188;24.160;2023-04-19T06:35:39;99331.44;;;12.13;96.88
26531;BME280;14201;43.188;24.160;2023-04-19T06:38:05;99328.00;;;12.14;97.09
26531;BME280;14201;43.188;24.160;2023-04-19T06:40:31;99319.41;;;12.18;97.30
26531;BME280;14201;43.188;24.160;2023-04-19T06:42:56;99329.06;;;12.21;97.84
26531;BME280;14201;43.188;24.160;2023-04-19T06:45:21;99326.38;;;12.18;98.72
26531;BME280;14201;43.188;24.160;2023-04-19T06:47:47;99324.34;;;12.09;98.20
26531;BME280;14201;43.188;24.160;2023-04-19T06:50:12;99327.69;;;12.05;99.63
26531;BME280;14201;43.188;24.160;2023-04-19T06:52:38;99327.13;;;12.14;98.87
26531;BME280;14201;43.188;24.160;2023-04-19T06:55:04;99329.34;;;12.30;97.97
26531;BME280;14201;43.188;24.160;2023-04-19T06:57:30;99327.53;;;12.28;97.96
26531;BME280;14201;43.188;24.160;2023-04-19T06:59:55;99330.66;;;12.16;98.56
26531;BME280;14201;43.188;24.160;2023-04-19T07:02:22;99334.41;;;11.97;99.67
26531;BME280;14201;43.188;24.160;2023-04-19T07:04:47;99334.19;;;12.18;98.97
26531;BME280;14201;43.188;24.160;2023-04-19T07:07:13;99328.94;;;12.16;99.30
26531;BME280;14201;43.188;24.160;2023-04-19T07:09:38;99329.25;;;12.27;97.92
26531;BME280;14201;43.188;24.160;2023-04-19T07:12:04;99336.19;;;12.27;98.00
26531;BME280;14201;43.188;24.160;2023-04-19T07:14:30;99335.53;;;12.34;98.05
26531;BME280;14201;43.188;24.160;2023-04-19T07:16:55;99329.50;;;12.36;97.99
26531;BME280;14201;43.188;24.160;2023-04-19T07:19:20;99326.88;;;12.35;98.75
26531;BME280;14201;43.188;24.160;2023-04-19T07:21:47;99334.91;;;12.41;98.03
26531;BME280;14201;43.188;24.160;2023-04-19T07:24:12;99333.28;;;12.46;98.25
26531;BME280;14201;43.188;24.160;2023-04-19T07:26:37;99337.88;;;12.53;97.66
26531;BME280;14201;43.188;24.160;2023-04-19T07:29:03;99338.84;;;12.57;97.57
26531;BME280;14201;43.188;24.160;2023-04-19T07:31:28;99340.00;;;12.67;95.40
26531;BME280;14201;43.188;24.160;2023-04-19T07:33:54;99343.03;;;12.52;96.56
26531;BME280;14201;43.188;24.160;2023-04-19T07:36:19;99350.09;;;12.54;96.55
26531;BME280;14201;43.188;24.160;2023-04-19T07:38:45;99347.50;;;12.56;95.88
26531;BME280;14201;43.188;24.160;2023-04-19T07:41:11;99347.25;;;12.47;95.98
26531;BME280;14201;43.188;24.160;2023-04-19T07:43:36;99351.50;;;12.43;96.87
26531;BME280;14201;43.188;24.160;2023-04-19T07:46:07;99348.25;;;12.23;97.16
26531;BME280;14201;43.188;24.160;2023-04-19T07:48:32;99346.03;;;12.35;97.39
26531;BME280;14201;43.188;24.160;2023-04-19T07:51:06;99344.59;;;12.45;96.63
26531;BME280;14201;43.188;24.160;2023-04-19T07:53:32;99348.25;;;12.21;98.63
26531;BME280;14201;43.188;24.160;2023-04-19T07:55:57;99351.97;;;12.30;97.32
26531;BME280;14201;43.188;24.160;2023-04-19T07:58:22;99349.53;;;12.36;97.20
26531;BME280;14201;43.188;24.160;2023-04-19T08:00:48;99345.06;;;12.32;98.08
26531;BME280;14201;43.188;24.160;2023-04-19T08:03:13;99347.34;;;12.50;97.47
26531;BME280;14201;43.188;24.160;2023-04-19T08:05:39;99346.91;;;12.65;97.63
26531;BME280;14201;43.188;24.160;2023-04-19T08:08:04;99345.31;;;12.70;98.02
26531;BME280;14201;43.188;24.160;2023-04-19T08:10:30;99339.63;;;12.85;96.53
26531;BME280;14201;43.188;24.160;2023-04-19T08:12:55;99345.81;;;12.88;94.66
26531;BME280;14201;43.188;24.160;2023-04-19T08:15:21;99337.50;;;13.02;95.89
26531;BME280;14201;43.188;24.160;2023-04-19T08:17:46;99340.44;;;13.14;95.38
26531;BME280;14201;43.188;24.160;2023-04-19T08:20:12;99343.00;;;13.12;95.33
26531;BME280;14201;43.188;24.160;2023-04-19T08:22:39;99339.06;;;12.96;93.59
26531;BME280;14201;43.188;24.160;2023-04-19T08:25:05;99341.53;;;12.60;93.28
26531;BME280;14201;43.188;24.160;2023-04-19T08:27:31;99326.97;;;12.68;96.20
26531;BME280;14201;43.188;24.160;2023-04-19T08:29:56;99334.28;;;12.50;96.58
26531;BME280;14201;43.188;24.160;2023-04-19T08:32:22;99332.09;;;12.65;96.29
26531;BME280;14201;43.188;24.160;2023-04-19T08:34:47;99331.94;;;12.89;94.89
26531;BME280;14201;43.188;24.160;2023-04-19T08:37:14;99332.34;;;13.05;95.29
26531;BME280;14201;43.188;24.160;2023-04-19T08:39:39;99330.63;;;12.75;96.91
26531;BME280;14201;43.188;24.160;2023-04-19T08:42:06;99327.03;;;12.70;97.37
26531;BME280;14201;43.188;24.160;2023-04-19T08:44:32;99332.16;;;12.67;97.53
26531;BME280;14201;43.188;24.160;2023-04-19T08:46:58;99329.00;;;12.48;96.79
26531;BME280;14201;43.188;24.160;2023-04-19T08:49:23;99328.44;;;12.58;99.38
26531;BME280;14201;43.188;24.160;2023-04-19T08:51:50;99320.94;;;12.71;100.00
26531;BME280;14201;43.188;24.160;2023-04-19T08:54:16;99323.06;;;12.84;98.35
26531;BME280;14201;43.188;24.160;2023-04-19T08:56:42;99324.25;;;12.95;97.43
26531;BME280;14201;43.188;24.160;2023-04-19T08:59:08;99323.66;;;13.06;98.49
26531;BME280;14201;43.188;24.160;2023-04-19T09:01:33;99325.03;;;13.25;93.46
26531;BME280;14201;43.188;24.160;2023-04-19T09:03:59;99321.56;;;13.26;92.19
26531;BME280;14201;43.188;24.160;2023-04-19T09:06:24;99318.84;;;13.21;93.68
26531;BME280;14201;43.188;24.160;2023-04-19T09:08:51;99317.41;;;13.32;92.83
26531;BME280;14201;43.188;24.160;2023-04-19T09:11:28;99318.94;;;13.24;94.80
26531;BME280;14201;43.188;24.160;2023-04-19T09:14:07;99311.81;;;13.52;95.99
26531;BME280;14201;43.188;24.160;2023-04-19T09:16:33;99311.47;;;13.74;90.89
26531;BME280;14201;43.188;24.160;2023-04-19T09:18:59;99316.94;;;13.84;90.15
26531;BME280;14201;43.188;24.160;2023-04-19T09:21:29;99312.47;;;13.79;93.54
26531;BME280;14201;43.188;24.160;2023-04-19T09:23:55;99315.25;;;13.86;92.94
26531;BME280;14201;43.188;24.160;2023-04-19T09:26:21;99313.91;;;14.03;87.58
26531;BME280;14201;43.188;24.160;2023-04-19T09:28:59;99313.72;;;13.94;88.30
26531;BME280;14201;43.188;24.160;2023-04-19T09:31:26;99317.84;;;13.86;90.30
26531;BME280;14201;43.188;24.160;2023-04-19T09:33:53;99313.84;;;14.00;91.40
26531;BME280;14201;43.188;24.160;2023-04-19T09:36:25;99313.03;;;14.03;88.96
26531;BME280;14201;43.188;24.160;2023-04-19T09:38:52;99315.19;;;14.22;88.05
26531;BME280;14201;43.188;24.160;2023-04-19T09:41:17;99308.69;;;14.44;87.48
26531;BME280;14201;43.188;24.160;2023-04-19T09:43:43;99308.13;;;14.57;89.86
26531;BME280;14201;43.188;24.160;2023-04-19T09:46:08;99310.72;;;14.56;85.12
26531;BME280;14201;43.188;24.160;2023-04-19T09:48:53;99309.25;;;14.29;85.70
26531;BME280;14201;43.188;24.160;2023-04-19T09:51:18;99311.13;;;14.35;85.46
26531;BME280;14201;43.188;24.160;2023-04-19T09:53:44;99308.69;;;14.43;86.12
26531;BME280;14201;43.188;24.160;2023-04-19T09:56:10;99311.50;;;14.53;84.13
26531;BME280;14201;43.188;24.160;2023-04-19T09:58:36;99315.47;;;14.74;83.61
26531;BME280;14201;43.188;24.160;2023-04-19T10:01:02;99310.38;;;14.82;83.17
26531;BME280;14201;43.188;24.160;2023-04-19T10:03:28;99308.47;;;14.74;82.13
26531;BME280;14201;43.188;24.160;2023-04-19T10:05:55;99301.94;;;14.54;82.37
26531;BME280;14201;43.188;24.160;2023-04-19T10:08:21;99307.25;;;14.57;85.19
26531;BME280;14201;43.188;24.160;2023-04-19T10:10:46;99296.31;;;14.37;83.83
26531;BME280;14201;43.188;24.160;2023-04-19T10:13:17;99305.03;;;14.36;85.54
26531;BME280;14201;43.188;24.160;2023-04-19T10:15:47;99299.59;;;14.66;88.51
26531;BME280;14201;43.188;24.160;2023-04-19T10:18:13;99300.53;;;14.70;82.84
26531;BME280;14201;43.188;24.160;2023-04-19T10:20:41;99292.22;;;14.92;83.22
26531;BME280;14201;43.188;24.160;2023-04-19T10:23:13;99296.44;;;15.33;85.41
26531;BME280;14201;43.188;24.160;2023-04-19T10:25:39;99298.03;;;15.73;86.27
26531;BME280;14201;43.188;24.160;2023-04-19T10:28:04;99293.16;;;15.98;83.87
26531;BME280;14201;43.188;24.160;2023-04-19T10:30:29;99293.34;;;16.10;76.99
26531;BME280;14201;43.188;24.160;2023-04-19T10:32:56;99293.53;;;16.23;74.99
26531;BME280;14201;43.188;24.160;2023-04-19T10:35:23;99286.72;;;16.39;75.61
26531;BME280;14201;43.188;24.160;2023-04-19T10:43:20;99274.69;;;15.92;75.38
26531;BME280;14201;43.188;24.160;2023-04-19T10:45:46;99268.41;;;15.81;73.84
26531;BME280;14201;43.188;24.160;2023-04-19T10:51:04;99257.00;;;15.80;72.99
26531;BME280;14201;43.188;24.160;2023-04-19T10:56:16;99260.78;;;15.98;76.36
26531;BME280;14201;43.188;24.160;2023-04-19T11:03:58;99253.59;;;16.53;75.06
26531;BME280;14201;43.188;24.160;2023-04-19T11:06:24;99253.13;;;16.85;70.84
26531;BME280;14201;43.188;24.160;2023-04-19T11:08:52;99256.03;;;17.14;70.94
26531;BME280;14201;43.188;24.160;2023-04-19T11:11:18;99251.72;;;17.21;70.69
26531;BME280;14201;43.188;24.160;2023-04-19T11:13:43;99246.63;;;17.39;71.15
26531;BME280;14201;43.188;24.160;2023-04-19T11:16:11;99240.06;;;16.96;70.96
26531;BME280;14201;43.188;24.160;2023-04-19T11:18:36;99234.78;;;16.91;71.57
26531;BME280;14201;43.188;24.160;2023-04-19T11:21:02;99232.13;;;16.89;72.87
26531;BME280;14201;43.188;24.160;2023-04-19T11:23:27;99232.38;;;17.19;70.01
26531;BME280;14201;43.188;24.160;2023-04-19T11:25:53;99242.06;;;17.21;68.25
26531;BME280;14201;43.188;24.160;2023-04-19T11:28:19;99240.22;;;17.11;71.48
26531;BME280;14201;43.188;24.160;2023-04-19T11:30:45;99236.72;;;17.15;69.71
26531;BME280;14201;43.188;24.160;2023-04-19T11:33:11;99238.44;;;17.07;66.63
26531;BME280;14201;43.188;24.160;2023-04-19T11:35:36;99229.47;;;16.89;65.78
26531;BME280;14201;43.188;24.160;2023-04-19T11:38:02;99236.63;;;17.03;67.77
26531;BME280;14201;43.188;24.160;2023-04-19T11:40:29;99228.75;;;17.03;65.44
26531;BME280;14201;43.188;24.160;2023-04-19T11:42:56;99226.00;;;16.93;67.40
26531;BME280;14201;43.188;24.160;2023-04-19T11:47:50;99222.72;;;17.16;66.65
26531;BME280;14201;43.188;24.160;2023-04-19T11:53:08;99220.34;;;17.47;66.72
26531;BME280;14201;43.188;24.160;2023-04-19T11:55:33;99217.75;;;17.51;67.35
26531;BME280;14201;43.188;24.160;2023-04-19T11:57:59;99221.25;;;17.54;66.54
26531;BME280;14201;43.188;24.160;2023-04-19T12:00:29;99209.91;;;17.59;66.74
26531;BME280;14201;43.188;24.160;2023-04-19T12:02:55;99204.59;;;17.55;65.79
26531;BME280;14201;43.188;24.160;2023-04-19T12:05:20;99202.97;;;17.72;67.40
26531;BME280;14201;43.188;24.160;2023-04-19T12:08:02;99208.38;;;17.94;67.66
26531;BME280;14201;43.188;24.160;2023-04-19T12:10:28;99201.47;;;18.13;68.72
26531;BME280;14201;43.188;24.160;2023-04-19T12:12:54;99198.03;;;18.30;66.64
26531;BME280;14201;43.188;24.160;2023-04-19T12:15:20;99198.97;;;18.53;61.78
26531;BME280;14201;43.188;24.160;2023-04-19T12:17:55;99188.47;;;18.71;60.26
26531;BME280;14201;43.188;24.160;2023-04-19T12:20:27;99188.50;;;18.83;59.28
26531;BME280;14201;43.188;24.160;2023-04-19T12:22:53;99183.22;;;18.79;57.77
26531;BME280;14201;43.188;24.160;2023-04-19T12:25:18;99177.84;;;18.46;61.57
26531;BME280;14201;43.188;24.160;2023-04-19T12:27:43;99175.22;;;18.48;60.57
26531;BME280;14201;43.188;24.160;2023-04-19T12:30:09;99176.13;;;18.70;63.77
26531;BME280;14201;43.188;24.160;2023-04-19T12:32:35;99171.75;;;18.78;60.66
26531;BME280;14201;43.188;24.160;2023-04-19T12:35:00;99162.13;;;18.91;60.39
26531;BME280;14201;43.188;24.160;2023-04-19T12:37:25;99156.84;;;19.20;61.60
26531;BME280;14201;43.188;24.160;2023-04-19T12:39:51;99167.41;;;19.37;56.13
26531;BME280;14201;43.188;24.160;2023-04-19T12:42:16;99159.47;;;19.42;55.33
26531;BME280;14201;43.188;24.160;2023-04-19T12:44:42;99156.81;;;19.48;54.46
26531;BME280;14201;43.188;24.160;2023-04-19T12:47:07;99155.03;;;19.58;59.97
26531;BME280;14201;43.188;24.160;2023-04-19T12:49:32;99148.00;;;19.52;57.87
26531;BME280;14201;43.188;24.160;2023-04-19T12:51:58;99148.84;;;19.63;58.42
26531;BME280;14201;43.188;24.160;2023-04-19T12:54:23;99152.41;;;19.79;57.74
26531;BME280;14201;43.188;24.160;2023-04-19T12:56:49;99151.56;;;19.17;53.92
26531;BME280;14201;43.188;24.160;2023-04-19T12:59:14;99142.78;;;19.29;55.21
26531;BME280;14201;43.188;24.160;2023-04-19T13:01:40;99132.19;;;18.75;58.66
26531;BME280;14201;43.188;24.160;2023-04-19T13:04:05;99144.41;;;18.33;59.55